Rockford, IL

10:25 PM CDT on April 29, 2017 (GMT -0500)
Ingersoll Golf Course | | Change Station
Active Advisory: Flood Watch Active Notice: Flood Watch

Elev 810 ft 42.28 °N, 89.15 °W | Updated 21 seconds ago

Rain
Rain
40.1 °F
Feels Like 40 °F
N
2.5
Wind Variable Wind from East
Gusts 2.5 mph

Today
High -- | Low -- °F
--% Chance of Precip.
Yesterday
High -- | Low -- °F
Precip. -- in
Pressure 30.03 in
Visibility 10.0 miles
Clouds Overcast 1300 ft
Windchill 40 °F
Dew Point 39 °F
Humidity 96%
Rainfall 0.97 in
Snow Depth Not available.
5:54 AM 7:54 PM
Waxing Crescent, 19% visible
METAR KRFD 300254Z 04016KT 10SM OVC013 06/03 A3002 RMK AO2 PK WND 08034/0158 SLP169 60019 T00610033 55021
Pressure 30.03 in
Visibility 10.0 miles
Clouds Overcast 1300 ft
Windchill 40 °F
Dew Point 39 °F
Humidity 96%
Rainfall 0.97 in
Snow Depth Not available.
5:54 AM 7:54 PM
Waxing Crescent, 19% visible
METAR KRFD 300254Z 04016KT 10SM OVC013 06/03 A3002 RMK AO2 PK WND 08034/0158 SLP169 60019 T00610033 55021

Get Your Daily Forecast Email!

Thanks for signing up!

Be on the lookout for a verification email in your inbox.

You'll start receiving severe weather alerts in your inbox..

×

10-Day Weather Forecast

Almanac

Astronomy

Apr. 29, 2017 Rise Set
Actual Time
Civil Twilight
Nautical Twilight
Astronomical Twilight
Moon
Length of Visible Light
Length of Day
Tomorrow will be .
, % of the Moon is Illuminated

Today's Extremes

State Highs State Lows

Community

WunderPhotos

WunderBlog® & News

Nearby

Air Quality

  Air Quality AQ Index Pollutant
Not available.

Snow Depth

Station Depth Elevation

Earthquake Activity

City Distance Mag. Time & Date
Minimum magnitude displayed is 2.5.

Coastal Water Temperatures

Place Temperature

Stations

Nearby Weather Stations

Station Location Temp. Windchill Dew Point Humidity Wind Precip. Elev Updated Type
                   

Watches & Warnings

Flood Watch
Issued: 8:52 PM CDT Apr. 29, 2017 – National Weather Service

The Flood Watch continues for
the Kishwaukee river near Perryville
* from late Sunday night to Wednesday evening.
* At 8:30 PM Saturday the stage was 7.5 feet.
* Minor flooding is possible.
* Flood stage is 12.0 feet.
* Forecast... flood stage may be reached by early Monday morning.


Lat... Lon 4223 8894 4216 8897 4217 8915 4222 8908
      4222 8902 4229 8894